createdAt,value
2022-12-25T00:01:41.183Z,56.63
2022-12-25T00:04:13.213Z,35.73
2022-12-25T00:06:43.994Z,91.73
2022-12-25T00:09:14.699Z,60.27
2022-12-25T00:11:46.500Z,20.50
2022-12-25T00:14:17.344Z,226.87
2022-12-25T00:16:48.215Z,166.30
2022-12-25T00:19:19.145Z,39.60
2022-12-25T00:21:49.967Z,138.87
2022-12-25T00:24:20.890Z,60.20
2022-12-25T00:26:52.665Z,84.83
2022-12-25T00:29:23.402Z,115.10
2022-12-25T00:31:54.102Z,64.33
2022-12-25T00:34:24.766Z,99.13
2022-12-25T00:36:55.497Z,40.13
2022-12-25T00:39:26.177Z,27.17
2022-12-25T00:42:14.313Z,35.00
2022-12-25T00:44:44.982Z,50.07
2022-12-25T00:47:16.007Z,89.00
2022-12-25T00:52:30.633Z,152.57
2022-12-25T00:57:50.090Z,76.47
2022-12-25T01:00:21.539Z,97.87
2022-12-25T01:02:52.387Z,41.17
2022-12-25T01:05:23.239Z,37.60
2022-12-25T01:07:54.002Z,15.77
2022-12-25T01:10:24.837Z,16.30
2022-12-25T01:12:55.484Z,14.20
2022-12-25T01:15:26.177Z,16.07
2022-12-25T01:17:56.841Z,98.03
2022-12-25T01:20:27.558Z,132.23
2022-12-25T01:22:58.224Z,74.80
2022-12-25T01:25:28.842Z,51.17
2022-12-25T01:27:59.677Z,70.87
2022-12-25T01:30:30.513Z,92.60
2022-12-25T01:33:01.203Z,63.20
2022-12-25T01:35:31.771Z,33.17
2022-12-25T01:38:02.411Z,108.93
2022-12-25T01:40:34.977Z,96.70
2022-12-25T01:43:05.574Z,120.23
2022-12-25T01:45:39.298Z,104.37
2022-12-25T01:48:14.401Z,67.43
2022-12-25T01:50:48.419Z,84.57
2022-12-25T01:53:19.425Z,70.03
2022-12-25T01:55:52.574Z,91.03
2022-12-25T01:58:23.576Z,89.30
2022-12-25T02:00:55.829Z,68.67
2022-12-25T02:03:26.699Z,70.83
2022-12-25T02:05:57.979Z,46.87
2022-12-25T02:08:28.964Z,310.50
2022-12-25T02:10:59.862Z,63.43
2022-12-25T02:13:30.701Z,59.07
2022-12-25T02:16:04.789Z,63.07
2022-12-25T02:18:40.774Z,43.00
2022-12-25T02:21:38.250Z,17.53
2022-12-25T02:24:29.954Z,9.03
2022-12-25T02:27:17.691Z,21.30
2022-12-25T02:29:54.304Z,10.37
2022-12-25T02:32:28.191Z,131.47
2022-12-25T02:35:03.287Z,16.33
2022-12-25T02:37:37.772Z,67.80
2022-12-25T02:40:13.248Z,39.60
2022-12-25T02:43:06.024Z,39.00
2022-12-25T02:45:57.915Z,11.80
2022-12-25T02:48:49.447Z,58.60
2022-12-25T02:51:41.687Z,92.40
2022-12-25T02:54:32.638Z,97.03
2022-12-25T02:57:24.235Z,11.03
2022-12-25T03:00:15.303Z,78.20
2022-12-25T03:03:06.331Z,40.33
2022-12-25T03:05:57.884Z,49.17
2022-12-25T03:08:31.467Z,16.13
2022-12-25T03:11:28.345Z,32.77
2022-12-25T03:14:03.537Z,26.30
2022-12-25T03:17:02.363Z,34.07
2022-12-25T03:19:53.113Z,16.40
2022-12-25T03:22:44.688Z,198.47
2022-12-25T03:25:33.203Z,200.00
2022-12-25T03:28:04.344Z,9.13
2022-12-25T03:30:56.186Z,125.60
2022-12-25T03:33:46.066Z,72.27
2022-12-25T03:36:07.047Z,185.07
2022-12-25T03:39:05.075Z,27.80
2022-12-25T03:41:56.616Z,117.23
2022-12-25T03:44:48.644Z,192.53
2022-12-25T03:47:41.321Z,75.77
2022-12-25T03:50:33.479Z,55.63
2022-12-25T03:53:25.089Z,34.13
2022-12-25T03:56:14.624Z,33.70
2022-12-25T03:59:15.403Z,102.27
2022-12-25T04:02:03.281Z,49.73
2022-12-25T04:04:51.688Z,202.67
2022-12-25T04:07:39.740Z,89.60
2022-12-25T04:10:29.821Z,43.07
2022-12-25T04:13:17.859Z,59.43
2022-12-25T04:19:07.259Z,31.83
2022-12-25T04:21:55.380Z,57.10
2022-12-25T04:24:43.448Z,36.40
2022-12-25T04:27:32.115Z,145.37
2022-12-25T04:30:20.355Z,92.37
2022-12-25T04:33:08.352Z,96.40
2022-12-25T04:35:56.519Z,104.43
2022-12-25T04:38:27.149Z,67.60
2022-12-25T04:40:57.822Z,69.77
2022-12-25T04:43:28.974Z,82.73
2022-12-25T04:46:01.494Z,53.83
2022-12-25T04:48:34.827Z,44.73
2022-12-25T04:51:17.263Z,32.43
2022-12-25T04:53:48.991Z,42.27
2022-12-25T04:56:20.729Z,34.47
2022-12-25T04:58:51.805Z,22.77
2022-12-25T05:01:22.780Z,18.33
2022-12-25T05:03:53.821Z,22.67
2022-12-25T05:06:24.624Z,19.97
2022-12-25T05:08:55.284Z,130.70
2022-12-25T05:11:25.933Z,36.87
2022-12-25T05:13:56.611Z,65.73
2022-12-25T05:16:27.830Z,26.57
2022-12-25T05:18:59.016Z,30.07
2022-12-25T05:21:29.728Z,11.70
2022-12-25T05:24:00.434Z,47.67
2022-12-25T05:26:31.161Z,55.20
2022-12-25T05:29:01.897Z,49.63
2022-12-25T05:31:32.588Z,14.57
2022-12-25T05:34:03.381Z,31.57
2022-12-25T05:36:34.028Z,65.77
2022-12-25T05:39:04.767Z,8.20
2022-12-25T05:41:35.405Z,132.27
2022-12-25T05:44:06.597Z,9.83
2022-12-25T05:46:37.228Z,13.30
2022-12-25T05:49:07.915Z,8.13
2022-12-25T05:51:38.612Z,23.40
2022-12-25T05:54:09.361Z,21.07
2022-12-25T05:56:40.677Z,11.30
2022-12-25T05:59:11.327Z,40.93
2022-12-25T06:01:42.203Z,47.23
2022-12-25T06:04:13.266Z,34.33
2022-12-25T06:06:44.433Z,36.97
2022-12-25T06:09:15.728Z,58.93
2022-12-25T06:11:46.476Z,24.30
2022-12-25T06:14:18.056Z,30.60
2022-12-25T06:16:50.187Z,60.37
2022-12-25T06:19:21.056Z,55.37
2022-12-25T06:21:55.225Z,74.73
2022-12-25T06:24:26.460Z,25.60
2022-12-25T06:26:57.161Z,53.50
2022-12-25T06:29:28.150Z,30.47
2022-12-25T06:31:59.251Z,28.60
2022-12-25T06:34:30.128Z,10.63
2022-12-25T06:37:00.781Z,30.67
2022-12-25T06:39:32.111Z,22.20
2022-12-25T06:42:02.952Z,30.33
2022-12-25T06:44:34.251Z,31.80
2022-12-25T06:47:04.887Z,28.50
2022-12-25T06:49:35.656Z,34.90
2022-12-25T06:52:05.347Z,318.50
2022-12-25T06:54:36.098Z,578.53
2022-12-25T06:57:06.793Z,355.30
2022-12-25T06:59:37.424Z,514.37
2022-12-25T07:02:11.415Z,643.73
2022-12-25T07:04:43.898Z,283.00
2022-12-25T07:07:15.276Z,474.17
2022-12-25T07:09:45.939Z,389.83
2022-12-25T07:12:21.400Z,371.40
2022-12-25T07:14:53.770Z,536.77
2022-12-25T07:17:25.105Z,331.40
2022-12-25T07:19:56.793Z,158.63
2022-12-25T07:22:29.271Z,13.30
2022-12-25T07:24:59.920Z,12.50
2022-12-25T07:27:31.455Z,15.10
2022-12-25T07:30:02.265Z,18.10
2022-12-25T07:32:33.879Z,19.93
2022-12-25T07:35:04.722Z,53.93
2022-12-25T07:37:35.360Z,40.53
2022-12-25T07:40:08.724Z,58.40
2022-12-25T07:42:39.325Z,72.60
2022-12-25T07:45:11.997Z,62.47
2022-12-25T07:47:42.648Z,327.47
2022-12-25T07:50:14.009Z,267.40
2022-12-25T07:52:44.730Z,324.17
2022-12-25T07:55:15.636Z,150.30
2022-12-25T07:57:46.425Z,262.43
2022-12-25T08:00:20.987Z,111.83
2022-12-25T08:02:52.775Z,87.67
2022-12-25T08:05:23.646Z,82.83
2022-12-25T08:07:57.972Z,24.03
2022-12-25T08:10:28.333Z,23.93
2022-12-25T08:12:59.766Z,67.20
2022-12-25T08:15:31.377Z,99.60
2022-12-25T08:18:02.016Z,41.33
2022-12-25T08:20:32.690Z,57.00
2022-12-25T08:25:42.088Z,108.67
2022-12-25T08:28:12.745Z,154.80
2022-12-25T08:30:43.972Z,761.77
2022-12-25T08:33:14.719Z,776.40
2022-12-25T08:35:45.346Z,621.50
2022-12-25T08:38:15.988Z,766.80
2022-12-25T08:40:46.672Z,426.47
2022-12-25T08:43:17.390Z,319.90
2022-12-25T08:45:50.308Z,458.10
2022-12-25T08:48:21.109Z,272.97
2022-12-25T08:50:53.400Z,355.37
2022-12-25T08:56:09.697Z,858.13
2022-12-25T08:58:42.701Z,810.50
2022-12-25T09:01:14.569Z,762.33
2022-12-25T09:03:45.371Z,616.73
2022-12-25T09:06:30.551Z,458.83
2022-12-25T09:09:01.343Z,332.03
2022-12-25T09:11:32.135Z,430.23
2022-12-25T09:14:02.903Z,376.97
2022-12-25T09:16:33.939Z,450.17
2022-12-25T09:19:04.674Z,277.87
2022-12-25T09:21:36.967Z,316.67
2022-12-25T09:24:08.361Z,328.93
2022-12-25T09:26:39.519Z,790.47
2022-12-25T09:29:10.183Z,600.67
2022-12-25T09:34:21.685Z,386.37
2022-12-25T09:36:52.313Z,513.10
2022-12-25T09:39:23.881Z,223.57
2022-12-25T09:41:59.765Z,204.53
2022-12-25T09:44:33.311Z,305.70
2022-12-25T09:47:06.678Z,224.37
2022-12-25T09:49:43.296Z,196.33
2022-12-25T09:52:17.277Z,201.90
2022-12-25T09:54:53.474Z,1140.13
2022-12-25T09:57:27.096Z,1171.00
2022-12-25T09:59:59.753Z,405.70
2022-12-25T10:02:38.814Z,618.13
2022-12-25T10:05:43.621Z,765.53
2022-12-25T10:08:17.754Z,463.73
2022-12-25T10:10:52.547Z,199.03
2022-12-25T10:13:52.594Z,240.47
2022-12-25T10:19:13.862Z,438.10
2022-12-25T10:21:45.628Z,229.27
2022-12-25T10:24:22.576Z,109.87
2022-12-25T10:26:56.495Z,187.10
2022-12-25T10:29:29.456Z,129.70
2022-12-25T10:32:00.771Z,46.17
2022-12-25T10:34:31.525Z,162.53
2022-12-25T10:37:03.043Z,165.37
2022-12-25T10:39:34.218Z,247.13
2022-12-25T10:42:32.687Z,190.27
2022-12-25T10:45:06.127Z,97.70
2022-12-25T10:47:39.686Z,20.70
2022-12-25T10:50:15.021Z,37.23
2022-12-25T10:52:55.027Z,29.07
2022-12-25T10:55:29.032Z,20.50
2022-12-25T10:57:58.781Z,16.07
2022-12-25T11:00:32.137Z,18.27
2022-12-25T11:03:03.514Z,15.27
2022-12-25T11:08:20.658Z,12.20
2022-12-25T11:10:58.101Z,14.63
2022-12-25T11:13:30.904Z,14.80
2022-12-25T11:16:09.608Z,12.43
2022-12-25T11:18:49.211Z,13.83
2022-12-25T11:21:22.574Z,8.43
2022-12-25T11:23:58.784Z,8.60
2022-12-25T11:26:32.307Z,10.13
2022-12-25T11:31:44.698Z,5.73
2022-12-25T11:34:18.617Z,5.50
2022-12-25T11:39:36.210Z,7.37
2022-12-25T11:42:11.299Z,7.87
2022-12-25T11:47:25.933Z,4.90
2022-12-25T11:50:00.889Z,4.10
2022-12-25T11:52:35.880Z,4.27
2022-12-25T11:55:11.249Z,5.77
2022-12-25T11:57:45.057Z,5.17
2022-12-25T12:00:19.032Z,4.67
2022-12-25T12:02:52.736Z,5.70
2022-12-25T12:08:04.201Z,3.97
2022-12-25T12:10:41.249Z,4.07
2022-12-25T12:16:01.567Z,5.30
2022-12-25T12:18:34.804Z,4.00
2022-12-25T12:21:09.168Z,5.40
2022-12-25T12:23:50.027Z,4.60
2022-12-25T12:26:24.249Z,5.00
2022-12-25T12:28:56.909Z,4.60
2022-12-25T12:31:29.845Z,4.43
2022-12-25T12:34:01.501Z,5.33
2022-12-25T12:36:36.852Z,4.93
2022-12-25T12:39:06.369Z,5.57
2022-12-25T12:44:29.531Z,5.40
2022-12-25T12:49:40.015Z,3.70
2022-12-25T12:52:17.393Z,3.43
2022-12-25T12:54:57.492Z,5.03
2022-12-25T12:57:31.805Z,4.37
2022-12-25T13:00:10.385Z,3.97
2022-12-25T13:03:08.099Z,4.57
2022-12-25T13:05:43.047Z,5.63
2022-12-25T13:08:25.501Z,4.63
2022-12-25T13:11:05.985Z,6.23
2022-12-25T13:13:40.151Z,3.37
2022-12-25T13:16:16.913Z,4.30
2022-12-25T13:18:48.385Z,5.77
2022-12-25T13:21:23.580Z,3.30
2022-12-25T13:24:01.183Z,4.33
2022-12-25T13:26:32.437Z,4.87
2022-12-25T13:29:09.485Z,4.27
2022-12-25T13:31:36.869Z,3.93
2022-12-25T13:34:10.121Z,6.20
2022-12-25T13:36:42.066Z,3.90
2022-12-25T13:39:16.688Z,2.80
2022-12-25T13:42:10.256Z,3.97
2022-12-25T13:44:47.797Z,3.70
2022-12-25T13:47:25.852Z,3.23
2022-12-25T13:52:39.702Z,4.93
2022-12-25T13:55:18.832Z,4.87
2022-12-25T13:57:53.072Z,3.47
2022-12-25T14:00:28.172Z,5.10
2022-12-25T14:02:59.669Z,5.17
2022-12-25T14:05:39.712Z,4.40
2022-12-25T14:08:08.435Z,2.57
2022-12-25T14:10:41.906Z,4.77
2022-12-25T14:13:16.538Z,3.90
2022-12-25T14:15:49.242Z,5.20
2022-12-25T14:18:22.334Z,3.93
2022-12-25T14:21:03.255Z,3.37
2022-12-25T14:23:37.625Z,4.77
2022-12-25T14:26:08.814Z,4.40
2022-12-25T14:28:39.999Z,5.23
2022-12-25T14:31:14.022Z,5.33
2022-12-25T14:36:23.030Z,3.33
2022-12-25T14:39:01.148Z,3.43
2022-12-25T14:41:34.753Z,4.43
2022-12-25T14:44:07.719Z,5.83
2022-12-25T14:46:38.604Z,2.77
2022-12-25T14:49:21.700Z,2.90
2022-12-25T14:51:54.029Z,4.23
2022-12-25T14:54:27.198Z,8.73
2022-12-25T14:56:58.237Z,2.90
2022-12-25T14:59:29.541Z,3.97
2022-12-25T15:02:02.083Z,6.30
2022-12-25T15:04:33.488Z,3.93
2022-12-25T15:07:07.584Z,4.27
2022-12-25T15:12:17.960Z,4.47
2022-12-25T15:14:48.545Z,3.60
2022-12-25T15:17:26.700Z,3.60
2022-12-25T15:20:00.790Z,6.53
2022-12-25T15:22:54.283Z,5.43
2022-12-25T15:25:03.917Z,3.70
2022-12-25T15:27:36.227Z,3.40
2022-12-25T15:30:13.484Z,5.27
2022-12-25T15:32:41.145Z,5.40
2022-12-25T15:35:16.792Z,6.47
2022-12-25T15:37:48.185Z,4.57
2022-12-25T15:40:21.635Z,4.07
2022-12-25T15:42:56.352Z,3.83
2022-12-25T15:45:27.772Z,3.80
2022-12-25T15:47:58.739Z,4.70
2022-12-25T15:50:30.635Z,8.23
2022-12-25T15:53:01.484Z,4.33
2022-12-25T15:55:32.536Z,4.17
2022-12-25T15:58:03.258Z,4.73
2022-12-25T16:00:34.317Z,4.90
2022-12-25T16:03:05.218Z,3.53
2022-12-25T16:05:36.706Z,4.97
2022-12-25T16:08:07.900Z,2.83
2022-12-25T16:10:40.394Z,6.27
2022-12-25T16:13:11.010Z,5.50
2022-12-25T16:15:42.099Z,11.43
2022-12-25T16:18:13.561Z,5.60
2022-12-25T16:23:22.832Z,3.73
2022-12-25T16:25:54.118Z,5.63
2022-12-25T16:28:24.981Z,5.37
2022-12-25T16:30:55.960Z,5.40
2022-12-25T16:33:28.255Z,4.07
2022-12-25T16:35:59.795Z,6.43
2022-12-25T16:38:32.853Z,4.90
2022-12-25T16:41:04.168Z,4.37
2022-12-25T16:46:16.147Z,7.17
2022-12-25T16:48:47.385Z,5.67
2022-12-25T16:51:20.462Z,6.13
2022-12-25T16:53:53.089Z,4.57
2022-12-25T16:56:25.670Z,5.23
2022-12-25T16:58:58.504Z,4.63
2022-12-25T17:01:29.342Z,5.70
2022-12-25T17:04:02.448Z,4.87
2022-12-25T17:06:34.697Z,4.67
2022-12-25T17:09:06.037Z,7.80
2022-12-25T17:11:37.146Z,5.03
2022-12-25T17:14:08.197Z,4.20
2022-12-25T17:16:40.682Z,6.83
2022-12-25T17:19:16.407Z,5.33
2022-12-25T17:21:47.634Z,5.20
2022-12-25T17:24:18.690Z,5.47
2022-12-25T17:26:50.110Z,5.60
2022-12-25T17:29:22.641Z,8.77
2022-12-25T17:31:53.607Z,5.00
2022-12-25T17:34:24.265Z,10.03
2022-12-25T17:36:55.555Z,6.33
2022-12-25T17:39:26.445Z,5.27
2022-12-25T17:41:57.213Z,9.53
2022-12-25T17:44:28.490Z,5.60
2022-12-25T17:46:59.273Z,9.57
2022-12-25T17:52:08.243Z,6.87
2022-12-25T17:54:40.990Z,7.93
2022-12-25T17:57:11.719Z,5.43
2022-12-25T17:59:42.434Z,9.47
2022-12-25T18:02:13.659Z,6.10
2022-12-25T18:04:44.596Z,6.47
2022-12-25T18:07:16.072Z,9.33
2022-12-25T18:09:47.030Z,5.60
2022-12-25T18:12:17.946Z,9.20
2022-12-25T18:14:48.931Z,6.13
2022-12-25T18:17:20.066Z,5.00
2022-12-25T18:19:52.657Z,7.70
2022-12-25T18:22:23.588Z,7.20
2022-12-25T18:24:54.371Z,4.70
2022-12-25T18:27:25.370Z,6.77
2022-12-25T18:29:56.119Z,8.03
2022-12-25T18:32:28.283Z,7.20
2022-12-25T18:34:59.431Z,7.83
2022-12-25T18:37:33.148Z,9.10
2022-12-25T18:40:02.745Z,7.00
2022-12-25T18:42:43.534Z,9.67
2022-12-25T18:45:16.137Z,8.83
2022-12-25T18:47:47.630Z,9.60
2022-12-25T18:50:18.768Z,10.57
2022-12-25T18:52:51.706Z,5.20
2022-12-25T18:55:22.186Z,6.37
2022-12-25T18:57:52.962Z,5.80
2022-12-25T19:00:24.101Z,8.00
2022-12-25T19:02:59.385Z,6.70
2022-12-25T19:05:30.390Z,8.63
2022-12-25T19:08:01.175Z,10.03
2022-12-25T19:10:32.008Z,8.07
2022-12-25T19:13:02.812Z,7.77
2022-12-25T19:15:33.656Z,5.83
2022-12-25T19:18:04.363Z,6.60
2022-12-25T19:20:35.057Z,6.23
2022-12-25T19:23:05.759Z,7.57
2022-12-25T19:25:36.798Z,6.10
2022-12-25T19:28:07.980Z,11.80
2022-12-25T19:30:40.243Z,15.07
2022-12-25T19:33:15.726Z,9.37
2022-12-25T19:35:43.774Z,13.83
2022-12-25T19:38:15.067Z,10.17
2022-12-25T19:40:48.544Z,7.37
2022-12-25T19:43:19.216Z,8.63
2022-12-25T19:45:50.387Z,8.00
2022-12-25T19:48:21.588Z,12.57
2022-12-25T19:50:53.175Z,10.93
2022-12-25T19:53:24.326Z,8.57
2022-12-25T19:55:56.182Z,8.57
2022-12-25T19:58:27.008Z,6.20
2022-12-25T20:01:03.183Z,6.90
2022-12-25T20:03:37.548Z,7.70
2022-12-25T20:06:09.379Z,6.27
2022-12-25T20:08:40.162Z,7.17
2022-12-25T20:11:11.046Z,7.17
2022-12-25T20:13:41.939Z,5.10
2022-12-25T20:16:12.911Z,10.63
2022-12-25T20:18:43.831Z,8.60
2022-12-25T20:21:16.939Z,6.03
2022-12-25T20:23:49.765Z,6.03
2022-12-25T20:26:23.065Z,7.23
2022-12-25T20:28:54.408Z,8.83
2022-12-25T20:31:28.617Z,8.10
2022-12-25T20:34:00.959Z,10.07
2022-12-25T20:36:37.155Z,7.27
2022-12-25T20:39:05.851Z,7.20
2022-12-25T20:41:37.513Z,7.23
2022-12-25T20:44:10.314Z,6.93
2022-12-25T20:46:42.108Z,7.30
2022-12-25T20:49:13.310Z,10.47
2022-12-25T20:51:44.389Z,8.20
2022-12-25T20:54:16.586Z,6.90
2022-12-25T20:56:47.465Z,10.33
2022-12-25T20:59:18.647Z,9.60
2022-12-25T21:01:49.919Z,8.20
2022-12-25T21:04:21.422Z,10.60
2022-12-25T21:06:52.277Z,9.50
2022-12-25T21:09:23.082Z,7.73
2022-12-25T21:11:53.942Z,8.47
2022-12-25T21:17:02.953Z,9.53
2022-12-25T21:19:33.808Z,7.67
2022-12-25T21:22:04.541Z,7.77
2022-12-25T21:24:35.326Z,7.37
2022-12-25T21:27:06.193Z,5.07
2022-12-25T21:29:36.795Z,13.63
2022-12-25T21:32:25.386Z,6.07
2022-12-25T21:34:56.052Z,7.67
2022-12-25T21:37:26.660Z,8.13
2022-12-25T21:39:57.393Z,6.13
2022-12-25T21:42:27.945Z,8.83
2022-12-25T21:44:58.706Z,10.30
2022-12-25T21:48:00.251Z,7.97
2022-12-25T21:50:19.115Z,7.50
2022-12-25T21:53:09.022Z,8.33
2022-12-25T21:55:39.658Z,8.23
2022-12-25T21:58:10.531Z,9.83
2022-12-25T22:00:41.286Z,11.10
2022-12-25T22:03:12.028Z,8.77
2022-12-25T22:06:00.077Z,9.27
2022-12-25T22:08:32.674Z,13.00
2022-12-25T22:11:08.626Z,10.40
2022-12-25T22:13:57.299Z,8.33
2022-12-25T22:16:45.425Z,11.70
2022-12-25T22:19:33.594Z,9.47
2022-12-25T22:22:04.310Z,9.07
2022-12-25T22:24:35.187Z,9.00
2022-12-25T22:27:05.857Z,12.00
2022-12-25T22:29:37.654Z,10.67
2022-12-25T22:32:12.292Z,10.43
2022-12-25T22:34:43.110Z,9.07
2022-12-25T22:37:17.329Z,7.87
2022-12-25T22:39:48.395Z,10.57
2022-12-25T22:42:19.272Z,14.40
2022-12-25T22:44:51.569Z,12.13
2022-12-25T22:47:22.345Z,13.00
2022-12-25T22:49:53.367Z,13.47
2022-12-25T22:52:24.322Z,10.87
2022-12-25T22:54:55.210Z,14.03
2022-12-25T22:57:25.961Z,16.40
2022-12-25T22:59:56.737Z,11.67
2022-12-25T23:02:27.841Z,11.83
2022-12-25T23:04:58.797Z,14.17
2022-12-25T23:07:29.439Z,13.27
2022-12-25T23:10:00.670Z,10.13
2022-12-25T23:12:49.013Z,9.93
2022-12-25T23:15:20.130Z,10.50
2022-12-25T23:18:21.587Z,9.33
2022-12-25T23:21:10.040Z,9.67
2022-12-25T23:23:58.115Z,11.47
2022-12-25T23:26:28.840Z,8.50
2022-12-25T23:29:17.041Z,12.30
2022-12-25T23:31:50.170Z,8.83
2022-12-25T23:34:21.315Z,10.63
2022-12-25T23:36:51.973Z,9.70
2022-12-25T23:39:22.741Z,10.17
2022-12-25T23:41:53.426Z,9.93
2022-12-25T23:44:24.684Z,10.20
2022-12-25T23:46:55.363Z,11.90
2022-12-25T23:49:27.322Z,10.57
2022-12-25T23:51:58.196Z,8.07
2022-12-25T23:54:31.344Z,8.20
2022-12-25T23:57:02.507Z,11.10
2022-12-25T23:59:33.833Z,10.07
